Terminal Aerodrome Forecast
Issued by NWS

Home | Current Version | Previous Version | Text Only | Print | Product List | Glossary On
Versions: 1 2 3 4 5 6 7 8 9 10 11 12
606
FTUS44 KTSA 112320
TAFMLC
TAF
KMLC 112320Z 1200/1224 02005KT P6SM SCT200
     FM120600 00000KT P6SM SCT120 BKN200
     FM121100 36002KT P6SM SCT120 SCT200
     FM121800 36011G17KT P6SM SCT120 BKN200
     FM122100 01011G17KT P6SM FEW020 SCT120 BKN200=

USA.gov is the U.S. government's official web portal to all federal, state and local government web resources and services.